Tiel, Netherlands
Current Conditions -  °F | °C
As of 2:55 AM on Thursday 23 Oct 2014 (Local Time) from EHVK Reporting Station
Overcast Overcast  
Wind Chill: 46°   Ceiling: 2700
Heat Index: 48°   Visibility: 6mi
Dew Point: 46°   Wind: 5mph
Humidity: 93%   Direction: 230°SW
Pressure: 30.18"   Gusts: NA
Location:  51.89°N, 5.43°E
Report Text: EHVK 230055Z AUTO 23004KT 9999 OVC027 09/08 Q1022 BLU
Loading
Personal Weather Stations






























Interactive Weather Map
Tropical Storm Tracking
New forecast layout! Learn more

10-Day Weather Forecast

Advertisements
Track Severe Weather on mobile